sim
Sign-in with your pilot id or email,
or register
Callsign
Passwort

Schedule Details

Flight Number: UAE515
Departure: Delhi Indira Gandhi International Airport (VIDP) at 15:55
Arrival: Dubai International Airport (OMDB) at 19:55
Route: Emirates Passenger Schedule. Enter filed route here before submitting Pirep.

Weather Information
Getting current METAR information for VIDP 312230Z 00000KT 1200 R28/P2000 R29/P2000 FU NSC 17/11 Q1013 NOSIG
Getting current METAR information for OMDB 312200Z 10003KT 050V170 7000 NSC 25/21 Q1015 NOSIG

Schedule Frequency

Route Map